createdAt,value
2018-12-12T00:00:43.108Z,3.50
2018-12-12T00:05:47.827Z,3.60
2018-12-12T00:10:52.051Z,4.23
2018-12-12T00:15:55.950Z,4.63
2018-12-12T00:20:59.958Z,4.00
2018-12-12T00:26:03.988Z,4.30
2018-12-12T00:31:07.896Z,3.80
2018-12-12T00:36:11.845Z,4.40
2018-12-12T00:41:16.353Z,4.40
2018-12-12T00:46:20.389Z,3.63
2018-12-12T00:51:24.430Z,3.73
2018-12-12T00:56:28.489Z,4.20
2018-12-12T01:01:32.667Z,4.10
2018-12-12T01:06:36.664Z,4.33
2018-12-12T01:11:45.796Z,3.97
2018-12-12T01:16:49.720Z,3.90
2018-12-12T01:21:53.874Z,4.40
2018-12-12T01:26:57.808Z,4.37
2018-12-12T01:32:08.929Z,4.77
2018-12-12T01:37:16.452Z,4.27
2018-12-12T01:42:20.311Z,3.70
2018-12-12T01:47:24.237Z,3.93
2018-12-12T01:52:28.243Z,4.33
2018-12-12T01:57:32.190Z,4.27
2018-12-12T02:02:36.102Z,4.60
2018-12-12T02:07:40.425Z,4.53
2018-12-12T02:12:50.812Z,3.97
2018-12-12T02:17:54.805Z,3.83
2018-12-12T02:22:58.754Z,4.40
2018-12-12T02:28:02.681Z,4.73
2018-12-12T02:33:06.609Z,4.23
2018-12-12T02:38:10.520Z,4.30
2018-12-12T02:43:14.587Z,4.57
2018-12-12T02:48:18.491Z,4.57
2018-12-12T02:56:27.485Z,4.37
2018-12-12T03:01:31.384Z,4.20
2018-12-12T03:06:35.284Z,4.03
2018-12-12T03:11:39.237Z,4.53
2018-12-12T03:16:43.280Z,4.80
2018-12-12T03:21:47.194Z,3.87
2018-12-12T03:26:51.113Z,4.23
2018-12-12T03:31:55.062Z,3.83
2018-12-12T03:36:59.049Z,4.60
2018-12-12T03:42:03.019Z,4.30
2018-12-12T03:47:07.155Z,4.37
2018-12-12T03:52:11.137Z,4.43
2018-12-12T03:57:15.065Z,4.43
2018-12-12T04:02:18.989Z,4.70
2018-12-12T04:07:22.908Z,4.77
2018-12-12T04:12:26.959Z,4.93
2018-12-12T04:17:30.862Z,4.17
2018-12-12T04:22:34.985Z,4.03
2018-12-12T04:27:38.937Z,4.47
2018-12-12T04:32:42.839Z,4.47
2018-12-12T04:37:46.792Z,4.63
2018-12-12T04:42:50.945Z,4.97
2018-12-12T04:47:54.868Z,4.53
2018-12-12T04:52:58.780Z,4.87
2018-12-12T05:00:04.953Z,7.37
2018-12-12T05:05:08.863Z,6.17
2018-12-12T05:10:12.912Z,5.80
2018-12-12T05:15:17.064Z,5.87
2018-12-12T05:20:20.976Z,4.80
2018-12-12T05:25:24.948Z,4.90
2018-12-12T05:30:28.917Z,4.97
2018-12-12T05:35:32.879Z,5.17
2018-12-12T05:40:36.894Z,5.73
2018-12-12T05:45:41.107Z,5.50
2018-12-12T05:50:45.069Z,5.37
2018-12-12T06:00:29.017Z,5.93
2018-12-12T06:05:32.937Z,5.07
2018-12-12T06:10:36.870Z,4.70
2018-12-12T06:15:40.789Z,5.43
2018-12-12T06:20:44.696Z,4.90
2018-12-12T06:25:48.626Z,5.43
2018-12-12T06:30:52.568Z,5.07
2018-12-12T06:47:39.393Z,5.83
2018-12-12T06:52:43.338Z,6.37
2018-12-12T06:57:47.401Z,6.07
2018-12-12T07:02:51.344Z,6.57
2018-12-12T07:07:55.546Z,7.17
2018-12-12T07:12:59.502Z,6.87
2018-12-12T07:18:03.414Z,6.80
2018-12-12T07:23:07.505Z,5.77
2018-12-12T07:28:11.749Z,6.13
2018-12-12T07:33:16.204Z,5.70
2018-12-12T07:38:20.172Z,6.33
2018-12-12T07:43:24.062Z,6.07
2018-12-12T07:48:28.125Z,5.97
2018-12-12T07:53:32.366Z,6.73
2018-12-12T07:58:36.340Z,7.30
2018-12-12T08:03:40.287Z,7.40
2018-12-12T08:08:44.241Z,7.13
2018-12-12T08:13:48.213Z,7.47
2018-12-12T08:18:52.310Z,5.90
2018-12-12T08:23:56.230Z,6.87
2018-12-12T08:29:00.185Z,6.53
2018-12-12T08:34:04.620Z,6.47
2018-12-12T08:39:08.688Z,6.93
2018-12-12T08:44:12.621Z,7.07
2018-12-12T08:49:16.572Z,7.30
2018-12-12T08:54:21.487Z,8.07
2018-12-12T08:59:25.650Z,7.23
2018-12-12T09:04:29.648Z,7.83
2018-12-12T09:09:33.685Z,7.87
2018-12-12T09:14:37.629Z,7.47
2018-12-12T09:19:41.524Z,7.80
2018-12-12T09:24:45.523Z,7.60
2018-12-12T09:30:27.001Z,8.37
2018-12-12T09:35:30.991Z,6.73
2018-12-12T09:40:35.182Z,6.93
2018-12-12T09:45:39.210Z,5.63
2018-12-12T09:50:43.134Z,6.43
2018-12-12T09:55:47.723Z,5.73
2018-12-12T10:00:51.613Z,6.77
2018-12-12T10:05:55.520Z,8.27
2018-12-12T10:10:59.519Z,8.70
2018-12-12T10:16:03.430Z,8.47
2018-12-12T10:21:07.422Z,10.33
2018-12-12T10:30:37.789Z,8.87
2018-12-12T10:35:41.778Z,9.87
2018-12-12T10:51:22.205Z,10.10
2018-12-12T10:56:26.129Z,9.80
2018-12-12T11:01:34.589Z,11.13
2018-12-12T11:06:38.496Z,11.53
2018-12-12T11:11:42.407Z,13.10
2018-12-12T11:16:46.304Z,11.87
2018-12-12T11:21:50.496Z,10.87
2018-12-12T11:26:54.679Z,12.53
2018-12-12T11:31:58.627Z,10.27
2018-12-12T11:37:02.717Z,10.60
2018-12-12T11:42:06.624Z,12.37
2018-12-12T11:47:10.608Z,11.73
2018-12-12T11:52:14.557Z,9.13
2018-12-12T11:57:19.061Z,8.53
2018-12-12T12:02:23.115Z,10.43
2018-12-12T12:07:27.062Z,9.63
2018-12-12T12:12:31.260Z,7.40
2018-12-12T12:17:35.506Z,7.77
2018-12-12T12:22:39.421Z,8.73
2018-12-12T12:27:43.336Z,7.47
2018-12-12T12:32:47.625Z,8.17
2018-12-12T12:37:51.572Z,7.20
2018-12-12T12:42:55.485Z,6.90
2018-12-12T12:47:59.537Z,6.47
2018-12-12T12:53:03.593Z,7.47
2018-12-12T12:58:07.490Z,7.90
2018-12-12T13:03:11.470Z,7.43
2018-12-12T13:08:15.430Z,7.27
2018-12-12T13:13:19.830Z,7.23
2018-12-12T13:18:24.092Z,7.60
2018-12-12T13:23:28.004Z,7.03
2018-12-12T13:28:31.914Z,6.60
2018-12-12T13:33:35.904Z,6.47
2018-12-12T13:38:40.057Z,5.57
2018-12-12T13:43:43.982Z,6.00
2018-12-12T13:48:47.913Z,5.07
2018-12-12T13:53:51.894Z,4.83
2018-12-12T13:58:56.128Z,5.20
2018-12-12T14:04:00.103Z,5.93
2018-12-12T14:09:05.379Z,5.53
2018-12-12T14:14:09.281Z,4.90
2018-12-12T14:19:13.206Z,4.80
2018-12-12T14:24:17.132Z,4.37
2018-12-12T14:29:21.176Z,3.97
2018-12-12T14:34:29.243Z,3.70
2018-12-12T14:39:31.372Z,3.67
2018-12-12T14:44:35.326Z,5.07
2018-12-12T14:49:39.220Z,4.43
2018-12-12T14:54:43.152Z,5.30
2018-12-12T14:59:47.120Z,5.40
2018-12-12T15:04:50.996Z,5.40
2018-12-12T15:09:55.085Z,4.17
2018-12-12T15:14:58.988Z,4.07
2018-12-12T15:20:02.992Z,6.33
2018-12-12T15:25:07.317Z,4.13
2018-12-12T15:30:11.322Z,6.20
2018-12-12T15:35:15.286Z,7.93
2018-12-12T15:40:19.399Z,4.70
2018-12-12T15:45:23.616Z,4.00
2018-12-12T15:50:27.562Z,3.93
2018-12-12T15:55:31.464Z,4.47
2018-12-12T16:00:35.527Z,4.20
2018-12-12T16:05:39.420Z,3.90
2018-12-12T16:10:43.415Z,4.00
2018-12-12T16:15:47.701Z,3.90
2018-12-12T16:20:51.613Z,3.80
2018-12-12T16:25:55.548Z,3.77
2018-12-12T16:30:59.550Z,3.97
2018-12-12T16:36:03.637Z,3.67
2018-12-12T16:41:07.862Z,3.57
2018-12-12T16:46:11.775Z,2.83
2018-12-12T16:51:15.673Z,3.03
2018-12-12T16:56:19.971Z,3.30
2018-12-12T17:01:23.976Z,2.77
2018-12-12T17:06:27.887Z,3.20
2018-12-12T17:11:32.122Z,3.03
2018-12-12T17:16:36.028Z,3.33
2018-12-12T17:21:39.948Z,3.80
2018-12-12T17:26:43.882Z,4.20
2018-12-12T17:31:47.797Z,4.00
2018-12-12T17:36:51.688Z,4.67
2018-12-12T17:41:55.628Z,3.90
2018-12-12T17:46:59.566Z,4.57
2018-12-12T17:52:03.508Z,4.57
2018-12-12T17:57:07.608Z,5.03
2018-12-12T18:02:11.919Z,4.33
2018-12-12T18:07:16.231Z,5.93
2018-12-12T18:12:20.122Z,4.60
2018-12-12T18:17:24.067Z,4.77
2018-12-12T18:22:28.373Z,4.77
2018-12-12T18:27:33.617Z,5.67
2018-12-12T18:32:37.544Z,3.57
2018-12-12T18:37:41.762Z,4.63
2018-12-12T18:42:45.951Z,3.60
2018-12-12T18:47:49.902Z,4.57
2018-12-12T18:52:54.204Z,4.07
2018-12-12T18:57:58.134Z,3.20
2018-12-12T19:03:02.054Z,4.30
2018-12-12T19:08:06.323Z,3.73
2018-12-12T19:13:10.201Z,3.50
2018-12-12T19:18:14.193Z,3.37
2018-12-12T19:23:18.687Z,4.50
2018-12-12T19:28:23.828Z,4.20
2018-12-12T19:33:28.163Z,4.40
2018-12-12T19:38:32.625Z,3.83
2018-12-12T19:43:36.888Z,3.60
2018-12-12T19:48:41.291Z,3.30
2018-12-12T19:53:45.994Z,3.57
2018-12-12T19:58:50.858Z,3.07
2018-12-12T20:03:55.190Z,4.13
2018-12-12T20:08:59.267Z,4.00
2018-12-12T20:14:05.082Z,3.60
2018-12-12T20:19:09.251Z,3.70
2018-12-12T20:24:13.566Z,3.67
2018-12-12T20:29:18.824Z,3.80
2018-12-12T20:34:22.809Z,3.87
2018-12-12T20:39:27.917Z,3.47
2018-12-12T20:44:36.447Z,3.40
2018-12-12T20:49:40.469Z,4.00
2018-12-12T20:54:45.649Z,3.50
2018-12-12T20:59:49.817Z,3.60
2018-12-12T21:04:54.538Z,4.07
2018-12-12T21:09:59.427Z,3.87
2018-12-12T21:15:04.039Z,4.17
2018-12-12T21:20:09.888Z,3.10
2018-12-12T21:25:13.975Z,3.00
2018-12-12T21:30:18.238Z,2.67
2018-12-12T21:35:22.332Z,3.07
2018-12-12T21:40:26.331Z,3.17
2018-12-12T21:45:30.364Z,3.20
2018-12-12T21:50:34.802Z,2.70
2018-12-12T21:55:40.738Z,3.30
2018-12-12T22:00:45.667Z,2.57
2018-12-12T22:05:49.896Z,3.40
2018-12-12T22:10:54.189Z,3.90
2018-12-12T22:16:00.637Z,3.10
2018-12-12T22:21:04.569Z,3.37
2018-12-12T22:26:08.870Z,3.40
2018-12-12T22:31:12.856Z,3.20
2018-12-12T22:36:16.797Z,3.33
2018-12-12T22:41:20.915Z,3.53
2018-12-12T22:46:25.044Z,3.83
2018-12-12T22:51:28.967Z,3.87
2018-12-12T22:56:32.893Z,3.20
2018-12-12T23:01:37.025Z,2.77
2018-12-12T23:06:40.920Z,2.27
2018-12-12T23:11:44.944Z,3.10
2018-12-12T23:16:48.825Z,3.00
2018-12-12T23:21:52.748Z,2.33
2018-12-12T23:26:56.671Z,3.60
2018-12-12T23:32:00.589Z,3.10
2018-12-12T23:37:04.572Z,3.90
2018-12-12T23:42:08.816Z,3.77
2018-12-12T23:47:12.722Z,3.00
2018-12-12T23:52:16.615Z,2.90
2018-12-12T23:57:20.713Z,3.03
